Aviation Digital Data Service (ADDS)

Output produced by METARs form (1211 UTC 22 March 2019)
found at http://www.aviationweather.gov/metar/data/
 
Forecast for: VDPP (PHNOM-PENH/POCHE, KH)
Text: TAF VDPP 221100Z 2212/2306 16010KT 9999 SCT017
Forecast period: 1200 UTC 22 March 2019 to 0600 UTC 23 March 2019
Forecast type: FROM: standard forecast or significant change
Winds: from the SSE (160 degrees) at 12 MPH (10 knots; 5.1 m/s)
Visibility: 6 or more miles 10+ km)
Ceiling: at least 12,000 feet AGL
Clouds: scattered clouds at 1700 feet AGL
Weather: no significant weather forecast for this period
Text: TEMPO 2212/2216 FEW017 FEW020CB
Forecast period: 1200 to 1600 UTC 22 March 2019
Forecast type: TEMPORARY: The following changes expected for less than half the time period
Visibility: missing
Ceiling: at least 12,000 feet AGL
Clouds: few clouds at 1700 feet AGL
few clouds at 2000 feet AGL
Weather: no significant weather forecast for this period